createdAt,value
2022-09-23T00:01:33.014Z,7.82
2022-09-23T00:04:02.255Z,7.80
2022-09-23T00:06:32.365Z,7.72
2022-09-23T00:09:01.071Z,7.55
2022-09-23T00:11:30.468Z,7.44
2022-09-23T00:14:01.053Z,7.32
2022-09-23T00:16:32.846Z,7.27
2022-09-23T00:19:02.262Z,7.18
2022-09-23T00:21:32.521Z,7.20
2022-09-23T00:24:01.324Z,7.21
2022-09-23T00:26:30.172Z,7.25
2022-09-23T00:28:58.984Z,7.19
2022-09-23T00:31:28.763Z,7.17
2022-09-23T00:33:59.790Z,7.19
2022-09-23T00:36:30.262Z,7.17
2022-09-23T00:39:00.694Z,7.14
2022-09-23T00:41:29.459Z,7.10
2022-09-23T00:44:00.133Z,7.09
2022-09-23T00:46:37.307Z,7.06
2022-09-23T00:49:10.302Z,7.06
2022-09-23T00:51:43.534Z,7.02
2022-09-23T00:54:13.391Z,6.94
2022-09-23T00:56:42.464Z,6.83
2022-09-23T00:59:11.838Z,6.82
2022-09-23T01:01:40.759Z,6.76
2022-09-23T01:04:10.032Z,6.73
2022-09-23T01:06:38.666Z,6.75
2022-09-23T01:09:07.407Z,6.74
2022-09-23T01:11:44.816Z,6.84
2022-09-23T01:14:32.505Z,6.81
2022-09-23T01:17:08.653Z,6.80
2022-09-23T01:20:01.701Z,6.82
2022-09-23T01:22:39.424Z,6.84
2022-09-23T01:25:37.748Z,6.84
2022-09-23T01:28:33.444Z,6.86
2022-09-23T01:31:09.453Z,6.86
2022-09-23T01:33:44.738Z,6.84
2022-09-23T01:36:23.867Z,6.83
2022-09-23T01:38:59.759Z,6.81
2022-09-23T01:41:50.573Z,6.87
2022-09-23T01:44:24.684Z,6.84
2022-09-23T01:46:58.082Z,6.79
2022-09-23T01:49:32.194Z,6.82
2022-09-23T01:52:08.148Z,6.82
2022-09-23T01:54:40.006Z,6.70
2022-09-23T01:57:13.229Z,6.71
2022-09-23T01:59:44.703Z,6.64
2022-09-23T02:02:20.053Z,6.60
2022-09-23T02:04:54.386Z,6.51
2022-09-23T02:07:28.725Z,6.48
2022-09-23T02:10:03.683Z,6.45
2022-09-23T02:12:36.309Z,6.49
2022-09-23T02:15:09.896Z,6.58
2022-09-23T02:17:47.537Z,6.61
2022-09-23T02:20:21.846Z,6.60
2022-09-23T02:22:57.947Z,6.63
2022-09-23T02:25:34.135Z,6.68
2022-09-23T02:28:10.488Z,6.74
2022-09-23T02:30:49.150Z,6.77
2022-09-23T02:33:24.897Z,6.77
2022-09-23T02:35:56.933Z,6.78
2022-09-23T02:38:34.968Z,6.79
2022-09-23T02:41:11.627Z,6.79
2022-09-23T02:43:49.018Z,6.80
2022-09-23T02:46:18.897Z,6.86
2022-09-23T02:48:53.484Z,6.91
2022-09-23T02:51:24.528Z,6.98
2022-09-23T02:53:56.442Z,7.01
2022-09-23T02:56:25.448Z,7.05
2022-09-23T02:58:56.361Z,7.12
2022-09-23T03:01:39.366Z,7.20
2022-09-23T03:04:17.396Z,7.28
2022-09-23T03:06:58.320Z,7.35
2022-09-23T03:09:33.205Z,7.43
2022-09-23T03:12:13.983Z,7.49
2022-09-23T03:14:50.661Z,7.53
2022-09-23T03:17:27.751Z,7.60
2022-09-23T03:20:04.129Z,7.68
2022-09-23T03:22:37.543Z,7.73
2022-09-23T03:25:10.677Z,7.80
2022-09-23T03:27:41.988Z,7.86
2022-09-23T03:30:13.147Z,7.85
2022-09-23T03:32:47.485Z,7.87
2022-09-23T03:35:17.879Z,7.96
2022-09-23T03:37:54.461Z,7.97
2022-09-23T03:40:27.989Z,8.03
2022-09-23T03:42:58.300Z,8.08
2022-09-23T03:45:32.518Z,8.15
2022-09-23T03:48:01.759Z,8.15
2022-09-23T03:50:31.916Z,8.20
2022-09-23T03:53:01.335Z,8.17
2022-09-23T03:55:30.056Z,8.24
2022-09-23T03:58:00.391Z,8.16
2022-09-23T04:00:29.041Z,8.25
2022-09-23T04:02:57.774Z,8.22
2022-09-23T04:05:26.559Z,8.25
2022-09-23T04:07:56.901Z,8.27
2022-09-23T04:10:25.737Z,8.28
2022-09-23T04:12:54.638Z,8.34
2022-09-23T04:15:23.443Z,8.34
2022-09-23T04:17:52.238Z,8.42
2022-09-23T04:20:20.892Z,8.48
2022-09-23T04:22:49.579Z,8.55
2022-09-23T04:25:19.913Z,8.52
2022-09-23T04:27:48.692Z,8.61
2022-09-23T04:30:18.896Z,8.58
2022-09-23T04:32:47.708Z,8.56
2022-09-23T04:35:16.580Z,8.65
2022-09-23T04:37:45.451Z,8.68
2022-09-23T04:40:14.357Z,8.69
2022-09-23T04:42:44.635Z,8.76
2022-09-23T04:45:13.477Z,8.73
2022-09-23T04:47:42.293Z,8.69
2022-09-23T04:50:11.513Z,8.82
2022-09-23T04:52:40.356Z,8.83
2022-09-23T04:55:11.408Z,8.86
2022-09-23T04:57:40.247Z,8.94
2022-09-23T05:00:12.574Z,8.94
2022-09-23T05:02:44.489Z,9.04
2022-09-23T05:05:13.659Z,9.05
2022-09-23T05:07:43.206Z,9.21
2022-09-23T05:10:12.030Z,9.30
2022-09-23T05:12:40.896Z,9.36
2022-09-23T05:15:11.354Z,9.39
2022-09-23T05:17:40.163Z,9.52
2022-09-23T05:20:09.811Z,9.55
2022-09-23T05:22:38.776Z,9.46
2022-09-23T05:25:08.122Z,9.38
2022-09-23T05:27:36.860Z,9.40
2022-09-23T05:30:08.034Z,9.29
2022-09-23T05:32:38.232Z,9.34
2022-09-23T05:35:08.156Z,9.30
2022-09-23T05:37:39.072Z,9.33
2022-09-23T05:40:08.198Z,9.37
2022-09-23T05:42:37.033Z,9.34
2022-09-23T05:45:07.776Z,9.38
2022-09-23T05:47:38.446Z,9.48
2022-09-23T05:50:08.046Z,9.60
2022-09-23T05:52:36.795Z,9.56
2022-09-23T05:55:06.176Z,9.89
2022-09-23T05:57:34.875Z,10.13
2022-09-23T06:00:04.597Z,10.81
2022-09-23T06:02:42.093Z,11.63
2022-09-23T06:05:12.063Z,12.24
2022-09-23T06:07:40.893Z,12.30
2022-09-23T06:10:10.155Z,12.35
2022-09-23T06:12:39.649Z,12.34
2022-09-23T06:15:09.484Z,12.56
2022-09-23T06:17:38.289Z,12.71
2022-09-23T06:20:09.715Z,13.19
2022-09-23T06:22:40.045Z,13.23
2022-09-23T06:25:10.130Z,12.88
2022-09-23T06:27:39.413Z,12.91
2022-09-23T06:30:09.412Z,12.77
2022-09-23T06:32:38.360Z,12.80
2022-09-23T06:35:20.719Z,12.39
2022-09-23T06:37:53.613Z,12.49
2022-09-23T06:40:23.495Z,12.32
2022-09-23T06:42:59.771Z,12.11
2022-09-23T06:45:29.389Z,11.99
2022-09-23T06:47:59.178Z,11.83
2022-09-23T06:50:31.055Z,11.59
2022-09-23T06:52:59.759Z,11.41
2022-09-23T06:55:29.100Z,10.82
2022-09-23T06:58:00.015Z,10.70
2022-09-23T07:00:29.381Z,10.81
2022-09-23T07:02:58.072Z,10.85
2022-09-23T07:05:28.332Z,10.82
2022-09-23T07:07:57.196Z,10.94
2022-09-23T07:10:29.303Z,10.84
2022-09-23T07:12:58.088Z,10.70
2022-09-23T07:15:26.937Z,10.65
2022-09-23T07:17:55.804Z,10.88
2022-09-23T07:20:24.754Z,10.97
2022-09-23T07:22:54.956Z,11.24
2022-09-23T07:25:24.481Z,11.63
2022-09-23T07:27:53.176Z,11.97
2022-09-23T07:30:25.387Z,12.26
2022-09-23T07:32:54.847Z,12.67
2022-09-23T07:35:23.778Z,12.64
2022-09-23T07:37:52.561Z,12.70
2022-09-23T07:40:23.797Z,13.24
2022-09-23T07:42:52.934Z,13.78
2022-09-23T07:45:22.708Z,14.22
2022-09-23T07:47:51.774Z,14.54
2022-09-23T07:50:20.708Z,14.72
2022-09-23T07:52:49.872Z,14.53
2022-09-23T07:55:20.998Z,14.01
2022-09-23T07:57:51.439Z,14.52
2022-09-23T08:00:21.356Z,14.66
2022-09-23T08:02:53.128Z,14.99
2022-09-23T08:05:22.893Z,15.22
2022-09-23T08:07:51.636Z,15.06
2022-09-23T08:10:21.240Z,14.69
2022-09-23T08:12:51.673Z,14.66
2022-09-23T08:15:20.560Z,14.45
2022-09-23T08:17:49.517Z,14.90
2022-09-23T08:20:32.148Z,14.79
2022-09-23T08:23:00.821Z,15.40
2022-09-23T08:25:32.034Z,15.75
2022-09-23T08:28:03.352Z,15.87
2022-09-23T08:30:32.298Z,16.19
2022-09-23T08:33:00.973Z,16.32
2022-09-23T08:35:30.642Z,16.50
2022-09-23T08:37:59.719Z,16.67
2022-09-23T08:40:28.548Z,16.88
2022-09-23T08:42:57.669Z,16.93
2022-09-23T08:45:29.194Z,17.02
2022-09-23T08:48:10.802Z,17.11
2022-09-23T08:50:43.900Z,16.46
2022-09-23T08:53:19.251Z,16.20
2022-09-23T08:55:51.015Z,16.42
2022-09-23T08:58:35.311Z,16.55
2022-09-23T09:01:14.233Z,16.57
2022-09-23T09:03:49.920Z,16.94
2022-09-23T09:06:22.533Z,16.81
2022-09-23T09:08:57.167Z,16.75
2022-09-23T09:11:32.416Z,17.16
2022-09-23T09:14:07.151Z,17.32
2022-09-23T09:16:59.414Z,17.44
2022-09-23T09:19:53.578Z,17.31
2022-09-23T09:22:25.064Z,17.55
2022-09-23T09:24:56.791Z,17.84
2022-09-23T09:27:25.770Z,18.21
2022-09-23T09:29:56.739Z,18.24
2022-09-23T09:32:38.390Z,18.42
2022-09-23T09:35:19.853Z,18.58
2022-09-23T09:37:49.533Z,18.69
2022-09-23T09:40:20.467Z,18.92
2022-09-23T09:42:51.801Z,18.85
2022-09-23T09:45:30.303Z,19.14
2022-09-23T09:48:11.209Z,19.23
2022-09-23T09:50:49.294Z,19.11
2022-09-23T09:53:24.200Z,19.54
2022-09-23T09:56:05.972Z,20.00
2022-09-23T09:58:41.827Z,20.19
2022-09-23T10:01:11.059Z,19.67
2022-09-23T10:03:44.594Z,19.86
2022-09-23T10:06:23.803Z,19.40
2022-09-23T10:09:14.047Z,19.93
2022-09-23T10:11:42.964Z,20.00
2022-09-23T10:14:18.926Z,20.13
2022-09-23T10:16:49.131Z,20.12
2022-09-23T10:19:27.314Z,20.02
2022-09-23T10:22:00.369Z,19.84
2022-09-23T10:24:32.419Z,19.46
2022-09-23T10:27:04.578Z,19.28
2022-09-23T10:29:38.610Z,19.66
2022-09-23T10:32:27.968Z,20.02
2022-09-23T10:35:02.980Z,20.27
2022-09-23T10:37:36.676Z,20.10
2022-09-23T10:40:34.467Z,19.15
2022-09-23T10:43:42.235Z,19.29
2022-09-23T10:46:36.782Z,19.58
2022-09-23T10:49:43.277Z,20.18
2022-09-23T10:52:28.994Z,20.26
2022-09-23T10:55:09.089Z,20.34
2022-09-23T10:57:55.843Z,20.23
2022-09-23T11:00:30.001Z,20.78
2022-09-23T11:03:19.843Z,20.83
2022-09-23T11:06:00.999Z,20.28
2022-09-23T11:08:41.557Z,19.40
2022-09-23T11:11:22.005Z,18.90
2022-09-23T11:14:06.256Z,19.48
2022-09-23T11:16:47.473Z,19.60
2022-09-23T11:19:32.503Z,20.44
2022-09-23T11:22:23.046Z,20.73
2022-09-23T11:25:09.206Z,20.57
2022-09-23T11:27:55.065Z,20.61
2022-09-23T11:30:23.962Z,20.79
2022-09-23T11:33:17.577Z,20.49
2022-09-23T11:35:50.313Z,20.09
2022-09-23T11:38:26.137Z,19.87
2022-09-23T11:41:02.538Z,19.88
2022-09-23T11:43:39.955Z,20.09
2022-09-23T11:46:23.830Z,20.30
2022-09-23T11:48:59.160Z,20.57
2022-09-23T11:51:33.738Z,20.74
2022-09-23T11:54:07.422Z,20.58
2022-09-23T11:56:46.479Z,20.96
2022-09-23T11:59:35.204Z,21.11
2022-09-23T12:02:20.974Z,20.65
2022-09-23T12:04:58.028Z,20.59
2022-09-23T12:07:34.857Z,19.74
2022-09-23T12:10:07.691Z,19.03
2022-09-23T12:12:47.930Z,19.14
2022-09-23T12:15:28.359Z,19.38
2022-09-23T12:18:23.434Z,20.00
2022-09-23T12:21:06.610Z,19.96
2022-09-23T12:24:03.341Z,19.96
2022-09-23T12:26:34.262Z,19.69
2022-09-23T12:29:07.538Z,19.69
2022-09-23T12:31:42.023Z,19.01
2022-09-23T12:34:26.175Z,18.40
2022-09-23T12:36:55.601Z,18.02
2022-09-23T12:39:31.740Z,17.71
2022-09-23T12:42:03.578Z,17.99
2022-09-23T12:44:39.422Z,18.32
2022-09-23T12:47:40.335Z,18.51
2022-09-23T12:50:48.952Z,18.38
2022-09-23T12:53:57.280Z,18.53
2022-09-23T12:56:51.059Z,18.61
2022-09-23T12:59:27.751Z,18.62
2022-09-23T13:01:57.926Z,18.63
2022-09-23T13:04:53.469Z,18.40
2022-09-23T13:07:30.218Z,18.48
2022-09-23T13:10:08.425Z,18.34
2022-09-23T13:12:40.664Z,18.31
2022-09-23T13:15:20.161Z,18.07
2022-09-23T13:17:48.980Z,17.63
2022-09-23T13:20:38.880Z,17.67
2022-09-23T13:23:21.658Z,17.59
2022-09-23T13:25:52.760Z,17.63
2022-09-23T13:28:37.012Z,17.57
2022-09-23T13:31:14.241Z,17.53
2022-09-23T13:33:47.673Z,17.50
2022-09-23T13:36:18.433Z,17.59
2022-09-23T13:38:47.512Z,17.50
2022-09-23T13:41:19.453Z,17.61
2022-09-23T13:43:52.188Z,17.72
2022-09-23T13:46:24.504Z,17.83
2022-09-23T13:48:56.054Z,17.83
2022-09-23T13:51:30.286Z,17.71
2022-09-23T14:12:24.549Z,18.15
2022-09-23T14:14:54.541Z,18.09
2022-09-23T14:17:24.366Z,17.80
2022-09-23T14:19:53.436Z,17.82
2022-09-23T14:22:25.746Z,17.67
2022-09-23T14:24:57.165Z,17.39
2022-09-23T14:27:31.534Z,17.32
2022-09-23T14:30:03.086Z,16.91
2022-09-23T14:32:33.569Z,16.96
2022-09-23T14:35:20.177Z,16.90
2022-09-23T14:38:09.446Z,16.78
2022-09-23T14:40:50.795Z,16.57
2022-09-23T14:43:25.295Z,16.43
2022-09-23T14:45:56.684Z,16.43
2022-09-23T14:48:28.075Z,16.20
2022-09-23T14:50:59.410Z,16.09
2022-09-23T14:53:40.528Z,15.99
2022-09-23T14:56:15.936Z,15.81
2022-09-23T14:58:52.561Z,15.91
2022-09-23T15:01:34.684Z,15.74
2022-09-23T15:04:14.040Z,15.42
2022-09-23T15:06:48.124Z,15.33
2022-09-23T15:09:23.823Z,15.17
2022-09-23T15:11:54.813Z,15.12
2022-09-23T15:14:37.644Z,15.21
2022-09-23T15:17:16.566Z,15.10
2022-09-23T15:19:46.690Z,15.13
2022-09-23T15:22:16.787Z,15.05
2022-09-23T15:24:46.747Z,15.04
2022-09-23T15:27:29.355Z,14.79
2022-09-23T15:30:15.405Z,14.67
2022-09-23T15:32:45.783Z,14.60
2022-09-23T15:35:16.633Z,14.59
2022-09-23T15:37:47.027Z,14.59
2022-09-23T15:40:21.113Z,14.51
2022-09-23T15:42:51.706Z,14.33
2022-09-23T15:45:27.914Z,14.36
2022-09-23T15:48:00.180Z,14.31
2022-09-23T15:50:31.496Z,14.17
2022-09-23T15:53:00.402Z,14.08
2022-09-23T15:55:29.326Z,14.08
2022-09-23T15:57:58.133Z,13.94
2022-09-23T16:00:28.701Z,13.90
2022-09-23T16:02:57.523Z,13.97
2022-09-23T16:05:33.691Z,13.97
2022-09-23T16:08:08.547Z,13.89
2022-09-23T16:10:39.045Z,13.94
2022-09-23T16:13:11.797Z,13.91
2022-09-23T16:15:42.423Z,13.84
2022-09-23T16:18:12.639Z,13.69
2022-09-23T16:20:44.629Z,13.76
2022-09-23T16:23:34.735Z,13.81
2022-09-23T16:26:07.525Z,13.68
2022-09-23T16:28:36.466Z,13.60
2022-09-23T16:31:07.600Z,13.61
2022-09-23T16:33:36.644Z,13.61
2022-09-23T16:36:06.426Z,13.56
2022-09-23T16:38:35.204Z,13.49
2022-09-23T16:41:04.201Z,13.40
2022-09-23T16:43:39.353Z,13.37
2022-09-23T16:46:12.445Z,13.26
2022-09-23T16:48:41.698Z,13.31
2022-09-23T16:51:15.865Z,13.21
2022-09-23T16:53:44.659Z,13.15
2022-09-23T16:56:13.752Z,13.01
2022-09-23T16:58:42.721Z,12.95
2022-09-23T17:01:34.716Z,12.90
2022-09-23T17:04:03.938Z,12.74
2022-09-23T17:06:32.761Z,12.72
2022-09-23T17:09:01.558Z,12.71
2022-09-23T17:11:33.954Z,12.56
2022-09-23T17:14:02.930Z,12.52
2022-09-23T17:16:35.119Z,12.42
2022-09-23T17:19:08.518Z,12.36
2022-09-23T17:21:37.627Z,12.27
2022-09-23T17:24:07.340Z,12.14
2022-09-23T17:26:36.380Z,11.98
2022-09-23T17:29:05.782Z,11.88
2022-09-23T17:31:36.395Z,11.87
2022-09-23T17:34:05.286Z,11.61
2022-09-23T17:36:34.218Z,11.74
2022-09-23T17:39:03.165Z,11.67
2022-09-23T17:41:32.100Z,11.61
2022-09-23T17:44:01.064Z,11.57
2022-09-23T17:46:30.310Z,11.25
2022-09-23T17:49:00.739Z,11.33
2022-09-23T17:51:30.063Z,11.28
2022-09-23T17:53:59.528Z,11.33
2022-09-23T17:56:30.166Z,11.27
2022-09-23T17:59:02.157Z,11.25
2022-09-23T18:01:31.878Z,11.21
2022-09-23T18:04:05.759Z,11.19
2022-09-23T18:06:37.277Z,11.10
2022-09-23T18:09:07.847Z,10.94
2022-09-23T18:11:37.992Z,10.80
2022-09-23T18:14:08.943Z,10.81
2022-09-23T18:16:39.699Z,10.72
2022-09-23T18:19:13.207Z,10.58
2022-09-23T18:21:44.300Z,10.46
2022-09-23T18:27:02.769Z,10.36
2022-09-23T18:29:31.706Z,10.29
2022-09-23T18:32:00.593Z,10.18
2022-09-23T18:34:30.913Z,10.08
2022-09-23T18:36:59.925Z,10.13
2022-09-23T18:39:29.622Z,10.05
2022-09-23T18:41:58.656Z,9.97
2022-09-23T18:44:27.516Z,9.81
2022-09-23T18:46:56.883Z,9.74
2022-09-23T18:49:43.792Z,9.70
2022-09-23T18:52:14.384Z,9.68
2022-09-23T18:54:44.244Z,9.60
2022-09-23T18:57:14.837Z,9.52
2022-09-23T18:59:44.547Z,9.48
2022-09-23T19:02:13.917Z,9.42
2022-09-23T19:04:42.922Z,9.37
2022-09-23T19:07:12.104Z,9.32
2022-09-23T19:09:42.269Z,9.24
2022-09-23T19:12:11.069Z,9.20
2022-09-23T19:14:39.773Z,9.21
2022-09-23T19:17:08.943Z,9.15
2022-09-23T19:19:37.902Z,9.09
2022-09-23T19:22:07.012Z,9.02
2022-09-23T19:24:35.848Z,8.97
2022-09-23T19:27:06.229Z,8.96
2022-09-23T19:29:35.187Z,8.92
2022-09-23T19:32:04.200Z,8.80
2022-09-23T19:34:34.916Z,8.74
2022-09-23T19:37:04.785Z,8.72
2022-09-23T19:39:34.843Z,8.66
2022-09-23T19:42:04.011Z,8.65
2022-09-23T19:44:34.419Z,8.57
2022-09-23T19:47:03.647Z,8.46
2022-09-23T19:49:32.544Z,8.48
2022-09-23T19:52:01.466Z,8.45
2022-09-23T19:54:30.348Z,8.44
2022-09-23T19:56:59.600Z,8.44
2022-09-23T19:59:28.551Z,8.41
2022-09-23T20:01:58.804Z,8.37
2022-09-23T20:04:27.981Z,8.34
2022-09-23T20:06:56.963Z,8.27
2022-09-23T20:09:27.913Z,8.21
2022-09-23T20:11:57.454Z,8.23
2022-09-23T20:14:27.254Z,8.21
2022-09-23T20:16:56.121Z,8.20
2022-09-23T20:19:26.380Z,8.16
2022-09-23T20:22:08.929Z,8.18
2022-09-23T20:24:37.768Z,8.14
2022-09-23T20:27:11.311Z,8.13
2022-09-23T20:29:40.063Z,8.14
2022-09-23T20:32:09.473Z,8.14
2022-09-23T20:34:40.868Z,8.13
2022-09-23T20:37:10.967Z,8.15
2022-09-23T20:39:39.783Z,8.13
2022-09-23T20:42:09.452Z,8.12
2022-09-23T20:44:38.190Z,8.06
2022-09-23T20:47:07.225Z,8.03
2022-09-23T20:49:36.668Z,7.92
2022-09-23T20:52:06.806Z,7.90
2022-09-23T20:54:38.963Z,7.80
2022-09-23T20:57:07.953Z,7.70
2022-09-23T20:59:36.600Z,7.70
2022-09-23T21:02:06.623Z,7.65
2022-09-23T21:04:35.564Z,7.60
2022-09-23T21:07:04.409Z,7.53
2022-09-23T21:09:34.640Z,7.42
2022-09-23T21:12:03.945Z,7.44
2022-09-23T21:14:33.025Z,7.37
2022-09-23T21:17:01.684Z,7.26
2022-09-23T21:19:30.562Z,7.23
2022-09-23T21:21:59.208Z,7.16
2022-09-23T21:27:19.328Z,7.07
2022-09-23T21:29:48.018Z,7.02
2022-09-23T21:32:16.949Z,6.90
2022-09-23T21:34:45.623Z,6.85
2022-09-23T21:37:14.219Z,6.83
2022-09-23T21:40:02.925Z,6.78
2022-09-23T21:42:34.132Z,6.73
2022-09-23T21:45:02.943Z,6.72
2022-09-23T21:47:32.528Z,6.66
2022-09-23T21:50:01.459Z,6.64
2022-09-23T21:52:31.637Z,6.62
2022-09-23T21:55:00.286Z,6.60
2022-09-23T21:57:31.592Z,6.57
2022-09-23T22:00:01.870Z,6.51
2022-09-23T22:02:34.322Z,6.56
2022-09-23T22:05:03.023Z,6.53
2022-09-23T22:07:32.159Z,6.51
2022-09-23T22:10:00.827Z,6.47
2022-09-23T22:12:29.711Z,6.50
2022-09-23T22:14:58.485Z,6.54
2022-09-23T22:17:30.339Z,6.44
2022-09-23T22:19:59.503Z,6.41
2022-09-23T22:22:28.157Z,6.38
2022-09-23T22:24:56.921Z,6.37
2022-09-23T22:27:27.402Z,6.36
2022-09-23T22:30:09.843Z,6.38
2022-09-23T22:32:43.818Z,6.32
2022-09-23T22:35:16.815Z,6.33
2022-09-23T22:37:45.729Z,6.40
2022-09-23T22:40:16.259Z,6.31
2022-09-23T22:42:45.282Z,6.30
2022-09-23T22:45:14.415Z,6.21
2022-09-23T22:47:46.004Z,6.17
2022-09-23T22:50:15.725Z,6.18
2022-09-23T22:52:44.957Z,6.22
2022-09-23T22:55:13.904Z,6.26
2022-09-23T22:57:42.852Z,6.30
2022-09-23T23:00:13.461Z,6.34
2022-09-23T23:02:43.687Z,6.35
2022-09-23T23:05:14.643Z,6.29
2022-09-23T23:07:43.279Z,6.28
2022-09-23T23:10:11.948Z,6.22
2022-09-23T23:12:41.769Z,6.14
2022-09-23T23:15:12.903Z,6.06
2022-09-23T23:17:43.779Z,6.04
2022-09-23T23:20:13.948Z,6.00
2022-09-23T23:22:42.568Z,5.91
2022-09-23T23:25:11.606Z,5.87
2022-09-23T23:27:40.238Z,5.87
2022-09-23T23:30:10.218Z,5.91
2022-09-23T23:32:38.895Z,5.89
2022-09-23T23:35:08.679Z,5.84
2022-09-23T23:37:38.683Z,5.84
2022-09-23T23:40:08.624Z,5.80
2022-09-23T23:42:38.939Z,5.84
2022-09-23T23:45:08.971Z,5.82
2022-09-23T23:47:37.683Z,5.89
2022-09-23T23:50:07.089Z,5.87
2022-09-23T23:52:35.797Z,5.81
2022-09-23T23:55:09.937Z,5.74
2022-09-23T23:57:39.483Z,5.82
